»·PEaware :: N28WW KYKM-KPDX

N28WW :: KYKM-KPDX

FLIGHT INFORMATION

Flight Status: Arrived
Operator: Privately registered:
United States
More flights under this callsign
Pilot: Austin M. (5128)
Aircraft: BEECH AIRCRAFT SUPER KING AIR 350
(B350)
More flights by this aircraft type
Origin: KYKM Yakima Air Term/Mcallister
United States
Destination: KPDX Portland Intl
United States
More flights between these airports :: More routes between these airports
Route: +YKM7 YKM V448 BTG
File this flight plan on PilotEdge
Remarks:
Altitude:
(Current/Filed)
18,000ft
Speed:
(Current/Filed)
270kts
Departed: 05-May-20 09:15 AM
Arrived: 05-May-20 09:59 AM
Distance/Time
Traveled:
103nm/0:43
Distance/Time
To Go:
Arrived

Flight Plot

Page will automatically refresh every two minutes.


Map Options




Map Legend


Flown Route
Filed Route
Departure Airport
Arrival Airport
Navaid (VOR, NDB)
Fix

Horizontal Profiles

Position Reports

Time Latitude Longitude Heading Altitude Ground
Speed
05-May-20 09:02 46.571343 -120.548010 91 1077ft 0kts
05-May-20 09:03 46.571343 -120.548010 91 1077ft 0kts
05-May-20 09:04 46.571343 -120.548010 91 1077ft 0kts
05-May-20 09:05 46.571343 -120.548010 91 1077ft 0kts
05-May-20 09:06 46.570767 -120.547288 138 1076ft 12kts
05-May-20 09:07 46.568767 -120.539763 110 1064ft 25kts
05-May-20 09:08 46.566855 -120.532167 112 1049ft 6kts
05-May-20 09:09 46.566613 -120.531613 136 1048ft 0kts
05-May-20 09:11 46.566613 -120.531613 136 1048ft 0kts
05-May-20 09:12 46.566613 -120.531613 136 1048ft 0kts
05-May-20 09:13 46.566613 -120.531613 136 1048ft 0kts
05-May-20 09:14 46.565773 -120.532487 285 1050ft 22kts
05-May-20 09:15 46.582710 -120.571624 325 2014ft 162kts
05-May-20 09:16 46.596269 -120.525745 115 3772ft 174kts
05-May-20 09:17 46.579208 -120.458792 105 5475ft 187kts
05-May-20 09:18 46.543979 -120.420236 205 7068ft 173kts
05-May-20 09:19 46.526852 -120.481499 256 8821ft 173kts
05-May-20 09:20 46.533908 -120.547373 328 10388ft 198kts
05-May-20 09:21 46.585789 -120.577905 332 11796ft 205kts
05-May-20 09:22 46.633159 -120.620722 314 13169ft 201kts
05-May-20 09:23 46.677443 -120.671199 314 14493ft 205kts
05-May-20 09:24 46.711098 -120.733729 297 15781ft 199kts
05-May-20 09:25 46.690181 -120.782518 182 17062ft 173kts
05-May-20 09:26 46.642137 -120.770704 190 18023ft 178kts
05-May-20 09:26 46.611961 -120.811687 232 18261ft 204kts
05-May-20 09:28 46.571229 -120.899306 233 18247ft 241kts
05-May-20 09:29 46.531872 -120.982924 233 18241ft 258kts
05-May-20 09:29 46.497510 -121.055592 233 18238ft 264kts
05-May-20 09:30 46.455680 -121.143682 233 18236ft 266kts
05-May-20 09:32 46.406558 -121.246729 234 18231ft 266kts
05-May-20 09:32 46.371562 -121.320365 234 18223ft 266kts
05-May-20 09:33 46.329389 -121.408425 234 18216ft 266kts
05-May-20 09:34 46.287102 -121.496285 234 18214ft 266kts
05-May-20 09:35 46.244798 -121.583888 234 18212ft 266kts
05-May-20 09:36 46.203077 -121.670021 233 18238ft 264kts
05-May-20 09:37 46.160980 -121.756709 233 18235ft 262kts
05-May-20 09:38 46.117774 -121.845416 233 17379ft 283kts
05-May-20 09:39 46.072285 -121.938965 233 16176ft 285kts
05-May-20 09:40 46.026662 -122.032062 233 14952ft 284kts
05-May-20 09:41 45.981131 -122.124596 233 13731ft 283kts
05-May-20 09:42 45.935545 -122.216022 233 12501ft 280kts
05-May-20 09:43 45.890346 -122.307135 232 11283ft 280kts
05-May-20 09:44 45.845309 -122.397822 232 10089ft 276kts
05-May-20 09:45 45.801275 -122.485985 231 8880ft 270kts
05-May-20 09:46 45.758570 -122.569804 228 7706ft 268kts
05-May-20 09:47 45.699794 -122.570038 140 6652ft 289kts
05-May-20 09:48 45.653965 -122.464754 117 5338ft 253kts
05-May-20 09:49 45.624951 -122.381604 117 3802ft 218kts
05-May-20 09:50 45.599520 -122.309935 117 3008ft 193kts
05-May-20 09:51 45.554568 -122.290476 205 3023ft 216kts
05-May-20 09:52 45.502136 -122.329187 225 2977ft 205kts
05-May-20 09:53 45.513864 -122.392022 305 2817ft 182kts
05-May-20 09:54 45.536096 -122.445280 300 1981ft 139kts
05-May-20 09:55 45.554119 -122.491319 300 1256ft 125kts
05-May-20 09:56 45.570566 -122.533426 299 645ft 116kts
05-May-20 09:57 45.586157 -122.573369 299 22ft 96kts
05-May-20 09:58 45.587965 -122.582747 206 21ft 0kts
05-May-20 09:59 45.585990 -122.582638 109 21ft 0kts
05-May-20 10:00 45.585990 -122.582639 109 21ft 0kts

Navigation Log

Ident Type
Flight plan parsing failed, navigation log unavailable